createdAt,value
2023-09-06T00:00:57.622Z,15.15
2023-09-06T00:01:57.663Z,15.07
2023-09-06T00:02:57.600Z,15.15
2023-09-06T00:03:57.820Z,15.18
2023-09-06T00:04:57.703Z,15.04
2023-09-06T00:05:57.550Z,15.14
2023-09-06T00:06:57.649Z,15.10
2023-09-06T00:07:57.543Z,15.06
2023-09-06T00:08:57.550Z,15.10
2023-09-06T00:09:57.588Z,15.11
2023-09-06T00:10:57.508Z,15.11
2023-09-06T00:11:57.501Z,15.14
2023-09-06T00:12:57.532Z,15.02
2023-09-06T00:13:57.508Z,14.97
2023-09-06T00:14:57.478Z,15.02
2023-09-06T00:15:57.533Z,14.94
2023-09-06T00:16:57.577Z,14.91
2023-09-06T00:17:57.517Z,14.92
2023-09-06T00:18:57.501Z,14.92
2023-09-06T00:19:57.432Z,14.86
2023-09-06T00:20:57.441Z,14.99
2023-09-06T00:21:57.442Z,14.86
2023-09-06T00:22:57.441Z,14.91
2023-09-06T00:23:57.402Z,14.84
2023-09-06T00:24:57.434Z,15.00
2023-09-06T00:25:57.397Z,14.85
2023-09-06T00:26:57.379Z,14.88
2023-09-06T00:27:57.453Z,14.88
2023-09-06T00:28:57.370Z,14.84
2023-09-06T00:29:57.356Z,14.82
2023-09-06T00:30:57.415Z,14.82
2023-09-06T00:31:57.389Z,14.77
2023-09-06T00:32:57.383Z,14.82
2023-09-06T00:33:57.362Z,14.81
2023-09-06T00:34:57.309Z,14.73
2023-09-06T00:35:57.322Z,14.63
2023-09-06T00:36:57.320Z,14.58
2023-09-06T00:37:57.320Z,14.59
2023-09-06T00:38:57.278Z,14.59
2023-09-06T00:39:57.338Z,14.54
2023-09-06T00:40:57.275Z,14.55
2023-09-06T00:41:57.262Z,14.51
2023-09-06T00:42:57.285Z,14.53
2023-09-06T00:43:57.274Z,14.45
2023-09-06T00:44:57.240Z,14.45
2023-09-06T00:45:57.250Z,14.41
2023-09-06T00:46:57.336Z,14.44
2023-09-06T00:47:57.248Z,14.51
2023-09-06T00:48:57.224Z,14.41
2023-09-06T00:49:57.195Z,14.40
2023-09-06T00:50:57.185Z,14.40
2023-09-06T00:51:57.210Z,14.43
2023-09-06T00:52:57.201Z,14.36
2023-09-06T00:53:57.162Z,14.29
2023-09-06T00:54:57.220Z,14.37
2023-09-06T00:55:57.148Z,14.30
2023-09-06T00:56:57.170Z,14.32
2023-09-06T00:57:57.228Z,14.41
2023-09-06T00:58:57.128Z,14.43
2023-09-06T00:59:57.113Z,14.41
2023-09-06T01:00:57.188Z,14.43
2023-09-06T01:01:57.241Z,14.51
2023-09-06T01:02:57.174Z,14.47
2023-09-06T01:03:57.155Z,14.54
2023-09-06T01:04:57.080Z,14.51
2023-09-06T01:05:57.067Z,14.50
2023-09-06T01:06:57.138Z,14.50
2023-09-06T01:07:57.054Z,14.54
2023-09-06T01:08:57.195Z,14.54
2023-09-06T01:09:57.071Z,14.41
2023-09-06T01:10:57.058Z,14.48
2023-09-06T01:11:57.048Z,14.48
2023-09-06T01:12:57.063Z,14.44
2023-09-06T01:13:57.004Z,14.33
2023-09-06T01:14:57.031Z,14.43
2023-09-06T01:15:57.098Z,14.32
2023-09-06T01:16:57.194Z,14.29
2023-09-06T01:17:57.013Z,14.26
2023-09-06T01:18:57.000Z,14.20
2023-09-06T01:19:56.968Z,14.28
2023-09-06T01:20:56.980Z,14.30
2023-09-06T01:21:57.008Z,14.35
2023-09-06T01:22:56.953Z,14.23
2023-09-06T01:23:56.925Z,14.22
2023-09-06T01:24:56.974Z,14.20
2023-09-06T01:25:56.937Z,14.22
2023-09-06T01:26:56.924Z,14.22
2023-09-06T01:27:56.966Z,14.22
2023-09-06T01:28:56.896Z,14.17
2023-09-06T01:29:56.900Z,14.22
2023-09-06T01:30:56.973Z,14.20
2023-09-06T01:31:57.001Z,14.11
2023-09-06T01:32:56.858Z,14.12
2023-09-06T01:33:56.873Z,14.12
2023-09-06T01:34:56.867Z,14.08
2023-09-06T01:35:56.833Z,14.10
2023-09-06T01:36:56.876Z,14.14
2023-09-06T01:37:56.818Z,14.05
2023-09-06T01:38:56.798Z,14.11
2023-09-06T01:39:57.858Z,14.07
2023-09-06T01:40:56.881Z,14.20
2023-09-06T01:41:56.795Z,14.17
2023-09-06T01:42:56.778Z,14.14
2023-09-06T01:43:56.796Z,14.03
2023-09-06T01:44:56.784Z,14.14
2023-09-06T01:45:56.797Z,14.15
2023-09-06T01:46:56.811Z,14.14
2023-09-06T01:47:56.795Z,14.05
2023-09-06T01:48:56.795Z,14.10
2023-09-06T01:49:56.725Z,14.07
2023-09-06T01:50:56.717Z,14.08
2023-09-06T01:51:56.745Z,14.07
2023-09-06T01:52:56.699Z,14.14
2023-09-06T01:53:56.717Z,14.03
2023-09-06T01:54:56.759Z,14.07
2023-09-06T01:55:56.678Z,13.99
2023-09-06T01:56:56.671Z,13.93
2023-09-06T01:57:56.731Z,13.85
2023-09-06T01:58:56.688Z,13.92
2023-09-06T01:59:56.661Z,13.86
2023-09-06T02:00:57.670Z,13.81
2023-09-06T02:01:56.670Z,13.86
2023-09-06T02:02:56.784Z,13.77
2023-09-06T02:03:56.843Z,13.75
2023-09-06T02:04:56.613Z,13.83
2023-09-06T02:05:56.600Z,13.77
2023-09-06T02:06:56.639Z,13.72
2023-09-06T02:07:56.616Z,13.75
2023-09-06T02:08:56.581Z,13.68
2023-09-06T02:09:56.604Z,13.74
2023-09-06T02:10:56.569Z,13.70
2023-09-06T02:11:56.583Z,13.63
2023-09-06T02:12:56.611Z,13.72
2023-09-06T02:13:56.546Z,13.63
2023-09-06T02:14:56.538Z,13.68
2023-09-06T02:15:56.588Z,13.67
2023-09-06T02:16:56.584Z,13.70
2023-09-06T02:17:56.562Z,13.65
2023-09-06T02:18:56.531Z,13.68
2023-09-06T02:19:56.503Z,13.74
2023-09-06T02:20:56.487Z,13.74
2023-09-06T02:21:56.564Z,13.70
2023-09-06T02:22:56.477Z,13.63
2023-09-06T02:23:56.470Z,13.60
2023-09-06T02:24:56.543Z,13.62
2023-09-06T02:25:56.458Z,13.65
2023-09-06T02:26:56.476Z,13.65
2023-09-06T02:27:56.468Z,13.62
2023-09-06T02:28:56.441Z,13.72
2023-09-06T02:29:56.436Z,13.65
2023-09-06T02:30:56.445Z,13.70
2023-09-06T02:31:56.547Z,13.63
2023-09-06T02:32:57.033Z,13.62
2023-09-06T02:33:56.414Z,13.56
2023-09-06T02:34:56.392Z,13.47
2023-09-06T02:35:56.406Z,13.49
2023-09-06T02:36:56.422Z,13.52
2023-09-06T02:37:56.365Z,13.44
2023-09-06T02:38:56.356Z,13.49
2023-09-06T02:39:56.352Z,13.44
2023-09-06T02:40:56.364Z,13.38
2023-09-06T02:41:56.333Z,13.38
2023-09-06T02:42:56.343Z,13.33
2023-09-06T02:43:56.320Z,13.41
2023-09-06T02:44:56.333Z,13.30
2023-09-06T02:45:56.364Z,13.38
2023-09-06T02:46:56.320Z,13.27
2023-09-06T02:47:56.302Z,13.31
2023-09-06T02:48:56.277Z,13.30
2023-09-06T02:49:56.297Z,13.28
2023-09-06T02:50:56.321Z,13.27
2023-09-06T02:51:56.256Z,13.27
2023-09-06T02:52:56.248Z,13.33
2023-09-06T02:53:56.238Z,13.31
2023-09-06T02:54:56.305Z,13.27
2023-09-06T02:55:56.233Z,13.25
2023-09-06T02:56:56.216Z,13.23
2023-09-06T02:57:56.226Z,13.35
2023-09-06T02:58:56.226Z,13.30
2023-09-06T02:59:56.223Z,13.28
2023-09-06T03:00:56.315Z,13.31
2023-09-06T03:01:56.198Z,13.31
2023-09-06T03:02:57.249Z,13.23
2023-09-06T03:03:56.245Z,13.28
2023-09-06T03:04:56.160Z,13.25
2023-09-06T03:05:56.144Z,13.31
2023-09-06T03:06:56.172Z,13.38
2023-09-06T03:07:56.158Z,13.27
2023-09-06T03:08:56.161Z,13.27
2023-09-06T03:09:56.154Z,13.23
2023-09-06T03:10:56.104Z,13.23
2023-09-06T03:11:56.104Z,13.31
2023-09-06T03:12:56.207Z,13.23
2023-09-06T03:13:56.106Z,13.22
2023-09-06T03:14:56.072Z,13.28
2023-09-06T03:15:56.100Z,13.31
2023-09-06T03:16:56.128Z,13.27
2023-09-06T03:17:56.109Z,13.22
2023-09-06T03:18:56.045Z,13.22
2023-09-06T03:19:56.032Z,13.15
2023-09-06T03:20:56.027Z,13.18
2023-09-06T03:21:56.019Z,13.16
2023-09-06T03:22:56.041Z,13.13
2023-09-06T03:23:56.001Z,13.12
2023-09-06T03:24:55.995Z,13.15
2023-09-06T03:25:56.515Z,13.20
2023-09-06T03:26:55.979Z,13.12
2023-09-06T03:27:55.999Z,13.13
2023-09-06T03:28:55.968Z,13.20
2023-09-06T03:29:55.955Z,13.16
2023-09-06T03:30:55.967Z,13.18
2023-09-06T03:31:56.054Z,13.16
2023-09-06T03:32:56.011Z,13.04
2023-09-06T03:33:55.922Z,13.15
2023-09-06T03:34:55.918Z,13.23
2023-09-06T03:35:55.997Z,13.20
2023-09-06T03:36:55.930Z,13.22
2023-09-06T03:37:56.007Z,13.30
2023-09-06T03:38:55.898Z,13.25
2023-09-06T03:39:55.881Z,13.28
2023-09-06T03:40:55.953Z,13.31
2023-09-06T03:41:55.894Z,13.27
2023-09-06T03:42:55.868Z,13.27
2023-09-06T03:43:55.859Z,13.30
2023-09-06T03:44:55.851Z,13.30
2023-09-06T03:45:55.869Z,13.37
2023-09-06T03:46:55.934Z,13.27
2023-09-06T03:47:56.032Z,13.30
2023-09-06T03:48:55.905Z,13.33
2023-09-06T03:49:55.808Z,13.33
2023-09-06T03:50:55.844Z,13.25
2023-09-06T03:51:55.798Z,13.35
2023-09-06T03:52:55.839Z,13.35
2023-09-06T03:53:55.769Z,13.33
2023-09-06T03:54:55.762Z,13.35
2023-09-06T03:55:55.803Z,13.25
2023-09-06T03:56:55.755Z,13.13
2023-09-06T03:57:55.748Z,13.16
2023-09-06T03:58:55.748Z,13.16
2023-09-06T03:59:55.753Z,13.04
2023-09-06T04:00:55.758Z,13.11
2023-09-06T04:01:55.793Z,13.18
2023-09-06T04:02:55.861Z,13.15
2023-09-06T04:03:55.830Z,13.12
2023-09-06T04:04:55.742Z,13.05
2023-09-06T04:05:55.688Z,13.03
2023-09-06T04:06:55.692Z,13.01
2023-09-06T04:07:55.733Z,13.00
2023-09-06T04:08:55.756Z,12.97
2023-09-06T04:09:55.683Z,12.95
2023-09-06T04:10:55.660Z,12.97
2023-09-06T04:11:55.640Z,12.93
2023-09-06T04:12:55.709Z,12.98
2023-09-06T04:13:55.625Z,12.95
2023-09-06T04:14:55.648Z,12.95
2023-09-06T04:15:55.616Z,12.98
2023-09-06T04:16:55.653Z,12.93
2023-09-06T04:17:55.693Z,12.94
2023-09-06T04:18:55.635Z,12.91
2023-09-06T04:19:56.254Z,12.90
2023-09-06T04:20:56.569Z,12.90
2023-09-06T04:21:55.559Z,13.01
2023-09-06T04:22:55.571Z,12.93
2023-09-06T04:23:55.577Z,12.87
2023-09-06T04:24:55.556Z,12.85
2023-09-06T04:25:56.574Z,12.91
2023-09-06T04:26:55.519Z,12.90
2023-09-06T04:27:55.520Z,12.94
2023-09-06T04:28:55.543Z,12.95
2023-09-06T04:29:55.506Z,12.95
2023-09-06T04:30:55.538Z,12.93
2023-09-06T04:31:55.523Z,12.94
2023-09-06T04:32:55.544Z,13.03
2023-09-06T04:33:55.486Z,12.95
2023-09-06T04:34:55.477Z,13.01
2023-09-06T04:35:55.461Z,12.97
2023-09-06T04:36:55.448Z,13.09
2023-09-06T04:37:55.479Z,13.08
2023-09-06T04:38:55.428Z,13.08
2023-09-06T04:39:55.425Z,13.05
2023-09-06T04:40:55.486Z,13.11
2023-09-06T04:41:55.403Z,13.08
2023-09-06T04:42:55.420Z,13.20
2023-09-06T04:43:55.450Z,13.20
2023-09-06T04:44:55.382Z,13.15
2023-09-06T04:45:55.372Z,13.30
2023-09-06T04:46:55.407Z,13.31
2023-09-06T04:47:55.409Z,13.33
2023-09-06T04:48:55.392Z,13.23
2023-09-06T04:49:55.339Z,13.19
2023-09-06T04:50:55.329Z,13.27
2023-09-06T04:51:55.358Z,13.22
2023-09-06T04:52:55.423Z,13.20
2023-09-06T04:53:55.322Z,13.23
2023-09-06T04:54:55.300Z,13.19
2023-09-06T04:55:55.295Z,13.20
2023-09-06T04:56:55.333Z,13.23
2023-09-06T04:57:55.285Z,13.25
2023-09-06T04:58:55.271Z,13.27
2023-09-06T04:59:55.272Z,13.19
2023-09-06T05:00:55.303Z,13.22
2023-09-06T05:01:55.270Z,13.25
2023-09-06T05:02:55.345Z,13.35
2023-09-06T05:03:55.338Z,13.27
2023-09-06T05:04:55.231Z,13.31
2023-09-06T05:05:55.292Z,13.30
2023-09-06T05:06:55.237Z,13.30
2023-09-06T05:07:55.202Z,13.42
2023-09-06T05:08:55.201Z,13.52
2023-09-06T05:09:55.190Z,13.39
2023-09-06T05:10:55.204Z,13.53
2023-09-06T05:11:55.177Z,13.46
2023-09-06T05:12:55.165Z,13.44
2023-09-06T05:13:55.194Z,13.52
2023-09-06T05:14:55.148Z,13.50
2023-09-06T05:15:55.163Z,13.56
2023-09-06T05:16:55.186Z,13.63
2023-09-06T05:17:55.163Z,13.74
2023-09-06T05:18:55.130Z,13.72
2023-09-06T05:19:55.131Z,13.60
2023-09-06T05:20:55.124Z,13.70
2023-09-06T05:21:55.093Z,13.67
2023-09-06T05:22:55.112Z,13.67
2023-09-06T05:23:55.076Z,13.67
2023-09-06T05:24:55.134Z,13.63
2023-09-06T05:25:55.066Z,13.70
2023-09-06T05:26:55.053Z,13.70
2023-09-06T05:27:55.128Z,13.67
2023-09-06T05:28:55.039Z,13.75
2023-09-06T05:29:55.063Z,13.74
2023-09-06T05:30:55.058Z,13.65
2023-09-06T05:31:55.064Z,13.75
2023-09-06T05:32:55.054Z,13.79
2023-09-06T05:33:55.040Z,13.78
2023-09-06T05:34:55.020Z,13.81
2023-09-06T05:35:54.984Z,13.83
2023-09-06T05:36:54.988Z,13.90
2023-09-06T05:37:55.022Z,13.89
2023-09-06T05:38:54.987Z,13.87
2023-09-06T05:39:54.947Z,13.90
2023-09-06T05:40:54.961Z,13.92
2023-09-06T05:41:54.940Z,13.95
2023-09-06T05:42:54.927Z,14.03
2023-09-06T05:43:54.961Z,14.04
2023-09-06T05:44:54.913Z,14.07
2023-09-06T05:45:54.957Z,14.07
2023-09-06T05:46:55.085Z,14.00
2023-09-06T05:47:55.135Z,14.17
2023-09-06T05:48:54.971Z,14.25
2023-09-06T05:49:54.992Z,14.26
2023-09-06T05:50:54.934Z,14.30
2023-09-06T05:51:54.981Z,14.36
2023-09-06T05:52:54.967Z,14.40
2023-09-06T05:53:54.925Z,14.48
2023-09-06T05:55:54.957Z,14.65
2023-09-06T05:56:54.825Z,14.82
2023-09-06T05:57:54.861Z,14.84
2023-09-06T05:58:54.825Z,14.89
2023-09-06T05:59:54.811Z,15.00
2023-09-06T06:00:54.803Z,14.94
2023-09-06T06:01:54.851Z,15.00
2023-09-06T06:02:54.880Z,15.09
2023-09-06T06:03:55.837Z,15.06
2023-09-06T06:04:54.825Z,15.21
2023-09-06T06:05:54.765Z,15.24
2023-09-06T06:06:54.777Z,15.31
2023-09-06T06:07:54.774Z,15.39
2023-09-06T06:08:54.786Z,15.44
2023-09-06T06:09:54.732Z,15.57
2023-09-06T06:10:54.743Z,15.59
2023-09-06T06:11:54.742Z,15.61
2023-09-06T06:12:54.709Z,15.67
2023-09-06T06:14:08.149Z,15.70
2023-09-06T06:14:56.693Z,15.84
2023-09-06T06:15:54.692Z,15.77
2023-09-06T06:16:54.724Z,15.82
2023-09-06T06:17:54.698Z,15.84
2023-09-06T06:18:54.669Z,15.73
2023-09-06T06:19:54.735Z,15.75
2023-09-06T06:20:54.677Z,15.90
2023-09-06T06:21:54.663Z,15.91
2023-09-06T06:22:54.630Z,16.04
2023-09-06T06:23:54.628Z,16.10
2023-09-06T06:24:54.673Z,16.15
2023-09-06T06:25:54.670Z,16.16
2023-09-06T06:26:54.601Z,16.21
2023-09-06T06:27:54.714Z,16.13
2023-09-06T06:28:54.728Z,16.13
2023-09-06T06:29:54.638Z,16.05
2023-09-06T06:30:54.602Z,16.21
2023-09-06T06:31:54.766Z,16.21
2023-09-06T06:32:54.624Z,16.42
2023-09-06T06:33:54.560Z,16.56
2023-09-06T06:34:54.582Z,16.71
2023-09-06T06:35:54.594Z,16.64
2023-09-06T06:36:54.518Z,16.68
2023-09-06T06:37:54.551Z,16.57
2023-09-06T06:38:54.508Z,16.71
2023-09-06T06:39:54.538Z,16.87
2023-09-06T06:40:54.561Z,16.96
2023-09-06T06:41:54.490Z,17.09
2023-09-06T06:42:54.483Z,17.26
2023-09-06T06:43:54.501Z,17.54
2023-09-06T06:44:54.483Z,17.86
2023-09-06T06:45:54.491Z,18.20
2023-09-06T06:46:54.484Z,18.45
2023-09-06T06:47:54.483Z,18.62
2023-09-06T06:48:55.438Z,18.86
2023-09-06T06:49:54.511Z,19.00
2023-09-06T06:50:54.503Z,19.16
2023-09-06T06:51:54.404Z,19.52
2023-09-06T06:52:54.477Z,19.62
2023-09-06T06:53:54.419Z,19.45
2023-09-06T06:54:54.410Z,19.27
2023-09-06T06:55:54.406Z,19.36
2023-09-06T06:56:54.386Z,19.64
2023-09-06T06:57:54.353Z,19.64
2023-09-06T06:58:54.429Z,19.49
2023-09-06T06:59:54.352Z,19.44
2023-09-06T07:00:54.430Z,19.62
2023-09-06T07:01:54.367Z,19.48
2023-09-06T07:02:54.366Z,19.37
2023-09-06T07:03:54.447Z,19.22
2023-09-06T07:04:56.259Z,19.22
2023-09-06T07:05:54.293Z,18.92
2023-09-06T07:06:54.297Z,18.60
2023-09-06T07:07:54.327Z,18.66
2023-09-06T07:08:54.279Z,18.71
2023-09-06T07:09:54.271Z,18.71
2023-09-06T07:10:54.294Z,19.24
2023-09-06T07:11:54.254Z,19.15
2023-09-06T07:12:54.270Z,19.08
2023-09-06T07:13:54.340Z,19.49
2023-09-06T07:14:54.241Z,19.70
2023-09-06T07:15:54.255Z,20.29
2023-09-06T07:16:54.387Z,20.63
2023-09-06T07:17:54.322Z,20.70
2023-09-06T07:18:54.204Z,20.66
2023-09-06T07:19:54.246Z,20.34
2023-09-06T07:20:54.193Z,19.86
2023-09-06T07:21:54.235Z,19.55
2023-09-06T07:22:54.195Z,20.02
2023-09-06T07:23:54.162Z,20.34
2023-09-06T07:24:54.167Z,20.66
2023-09-06T07:25:54.154Z,21.50
2023-09-06T07:26:54.159Z,22.18
2023-09-06T07:27:54.146Z,22.68
2023-09-06T07:28:54.166Z,23.15
2023-09-06T07:29:54.122Z,22.81
2023-09-06T07:30:54.168Z,22.41
2023-09-06T07:31:54.132Z,22.43
2023-09-06T07:32:54.132Z,22.04
2023-09-06T07:33:54.123Z,21.67
2023-09-06T07:34:54.096Z,22.02
2023-09-06T07:35:54.109Z,22.10
2023-09-06T07:36:54.074Z,21.93
2023-09-06T07:37:54.060Z,21.95
2023-09-06T07:38:54.048Z,22.44
2023-09-06T07:39:54.043Z,23.24
2023-09-06T07:40:54.066Z,23.86
2023-09-06T07:41:54.024Z,24.18
2023-09-06T07:42:54.044Z,24.48
2023-09-06T07:43:54.015Z,24.58
2023-09-06T07:44:54.034Z,24.36
2023-09-06T07:45:54.071Z,24.20
2023-09-06T07:46:54.094Z,24.20
2023-09-06T07:47:54.059Z,24.60
2023-09-06T07:48:54.369Z,24.78
2023-09-06T07:49:53.987Z,25.36
2023-09-06T07:50:54.008Z,25.68
2023-09-06T07:51:53.961Z,25.91
2023-09-06T07:52:53.971Z,26.25
2023-09-06T07:53:53.939Z,26.59
2023-09-06T07:54:53.958Z,26.66
2023-09-06T07:55:53.939Z,27.05
2023-09-06T07:56:53.911Z,27.00
2023-09-06T07:57:53.905Z,27.18
2023-09-06T07:58:53.909Z,27.58
2023-09-06T07:59:53.917Z,27.67
2023-09-06T08:01:06.148Z,27.78
2023-09-06T08:01:55.925Z,27.77
2023-09-06T08:02:53.922Z,27.45
2023-09-06T08:03:53.964Z,27.55
2023-09-06T08:04:54.097Z,27.45
2023-09-06T08:05:53.920Z,27.55
2023-09-06T08:06:54.045Z,27.67
2023-09-06T08:07:53.839Z,27.59
2023-09-06T08:08:53.926Z,27.40
2023-09-06T08:09:53.863Z,28.00
2023-09-06T08:10:53.818Z,28.23
2023-09-06T08:11:53.830Z,28.41
2023-09-06T08:12:53.807Z,28.63
2023-09-06T08:13:53.882Z,28.98
2023-09-06T08:14:53.864Z,29.27
2023-09-06T08:15:53.796Z,29.53
2023-09-06T08:16:53.844Z,29.17
2023-09-06T08:17:53.904Z,28.75
2023-09-06T08:18:53.837Z,28.86
2023-09-06T08:19:53.768Z,28.72
2023-09-06T08:20:53.831Z,28.70
2023-09-06T08:21:53.752Z,28.94
2023-09-06T08:22:53.774Z,29.17
2023-09-06T08:23:53.759Z,29.01
2023-09-06T08:24:53.740Z,29.23
2023-09-06T08:25:53.728Z,28.74
2023-09-06T08:26:53.733Z,28.72
2023-09-06T08:27:53.742Z,28.32
2023-09-06T08:28:53.698Z,28.47
2023-09-06T08:29:54.799Z,28.81
2023-09-06T08:30:53.781Z,29.07
2023-09-06T08:31:53.760Z,29.31
2023-09-06T08:32:53.754Z,29.22
2023-09-06T08:33:53.809Z,29.01
2023-09-06T08:34:53.672Z,29.02
2023-09-06T08:35:53.666Z,29.26
2023-09-06T08:36:53.680Z,29.19
2023-09-06T08:37:53.675Z,29.01
2023-09-06T08:38:53.646Z,28.93
2023-09-06T08:39:53.767Z,28.74
2023-09-06T08:40:53.639Z,28.70
2023-09-06T08:41:53.688Z,28.81
2023-09-06T08:42:53.636Z,29.16
2023-09-06T08:43:53.618Z,29.57
2023-09-06T08:44:53.615Z,29.81
2023-09-06T08:45:54.011Z,29.84
2023-09-06T08:46:53.749Z,30.25
2023-09-06T08:47:53.694Z,30.69
2023-09-06T08:48:53.700Z,31.03
2023-09-06T08:49:53.588Z,31.33
2023-09-06T08:50:56.173Z,31.80
2023-09-06T08:51:54.603Z,31.52
2023-09-06T08:52:53.561Z,31.49
2023-09-06T08:53:53.569Z,31.12
2023-09-06T08:54:53.622Z,31.06
2023-09-06T08:55:53.574Z,31.39
2023-09-06T08:56:53.569Z,31.49
2023-09-06T08:57:53.545Z,31.10
2023-09-06T08:58:53.530Z,31.07
2023-09-06T08:59:53.523Z,31.52
2023-09-06T09:00:53.630Z,31.69
2023-09-06T09:01:53.548Z,31.07
2023-09-06T09:02:53.667Z,30.73
2023-09-06T09:03:53.677Z,30.61
2023-09-06T09:05:00.141Z,30.53
2023-09-06T09:05:54.517Z,30.78
2023-09-06T09:06:53.517Z,31.20
2023-09-06T09:07:53.478Z,31.17
2023-09-06T09:08:53.470Z,31.10
2023-09-06T09:09:53.553Z,31.36
2023-09-06T09:10:53.488Z,31.40
2023-09-06T09:11:53.456Z,31.14
2023-09-06T09:12:53.575Z,31.21
2023-09-06T09:13:53.441Z,31.27
2023-09-06T09:14:53.461Z,31.44
2023-09-06T09:15:53.528Z,31.65
2023-09-06T09:16:53.458Z,31.44
2023-09-06T09:18:00.953Z,31.07
2023-09-06T09:18:55.422Z,30.96
2023-09-06T09:19:53.435Z,30.94
2023-09-06T09:20:53.408Z,30.91
2023-09-06T09:21:53.394Z,30.57
2023-09-06T09:22:53.414Z,30.81
2023-09-06T09:23:53.407Z,30.70
2023-09-06T09:24:53.426Z,30.94
2023-09-06T09:25:53.368Z,31.06
2023-09-06T09:26:53.371Z,31.21
2023-09-06T09:27:53.421Z,31.51
2023-09-06T09:28:53.384Z,31.54
2023-09-06T09:29:53.338Z,31.84
2023-09-06T09:30:53.387Z,31.56
2023-09-06T09:31:53.333Z,31.52
2023-09-06T09:32:53.366Z,31.52
2023-09-06T09:33:53.388Z,31.54
2023-09-06T09:34:53.317Z,31.03
2023-09-06T09:35:53.323Z,30.30
2023-09-06T09:36:53.338Z,30.09
2023-09-06T09:37:53.299Z,29.59
2023-09-06T09:38:53.309Z,29.78
2023-09-06T09:39:53.291Z,30.23
2023-09-06T09:40:53.979Z,30.62
2023-09-06T09:41:59.565Z,30.55
2023-09-06T09:42:55.283Z,30.21
2023-09-06T09:43:53.283Z,30.23
2023-09-06T09:44:53.253Z,29.98
2023-09-06T09:45:53.289Z,29.91
2023-09-06T09:46:53.255Z,29.93
2023-09-06T09:47:54.298Z,29.66
2023-09-06T09:48:54.220Z,29.54
2023-09-06T09:49:53.257Z,29.75
2023-09-06T09:50:53.213Z,29.88
2023-09-06T09:51:53.209Z,30.10
2023-09-06T09:52:53.213Z,30.23
2023-09-06T09:53:53.194Z,29.50
2023-09-06T09:54:53.229Z,29.23
2023-09-06T09:55:53.179Z,28.88
2023-09-06T09:56:53.201Z,28.78
2023-09-06T09:57:53.218Z,28.84
2023-09-06T09:58:53.157Z,28.98
2023-09-06T09:59:53.228Z,28.96
2023-09-06T10:00:53.177Z,28.89
2023-09-06T10:01:53.220Z,28.75
2023-09-06T10:02:53.277Z,28.89
2023-09-06T10:03:53.160Z,28.81
2023-09-06T10:04:53.208Z,28.56
2023-09-06T10:05:53.117Z,28.19
2023-09-06T10:06:53.126Z,27.74
2023-09-06T10:07:53.091Z,27.45
2023-09-06T10:08:53.093Z,27.30
2023-09-06T10:09:53.113Z,27.25
2023-09-06T10:10:53.071Z,27.03
2023-09-06T10:11:53.093Z,27.03
2023-09-06T10:12:53.088Z,26.88
2023-09-06T10:13:53.893Z,26.68
2023-09-06T10:14:53.050Z,26.78
2023-09-06T10:15:53.125Z,26.75
2023-09-06T10:16:53.089Z,26.93
2023-09-06T10:17:53.101Z,27.03
2023-09-06T10:18:53.111Z,27.20
2023-09-06T10:19:54.862Z,27.22
2023-09-06T10:20:54.044Z,27.27
2023-09-06T10:21:53.001Z,27.44
2023-09-06T10:22:53.018Z,27.22
2023-09-06T10:23:52.989Z,27.27
2023-09-06T10:24:53.021Z,27.37
2023-09-06T10:25:52.990Z,27.68
2023-09-06T10:26:52.957Z,27.98
2023-09-06T10:27:52.974Z,28.07
2023-09-06T10:28:52.945Z,28.08
2023-09-06T10:30:03.529Z,27.96
2023-09-06T10:30:55.010Z,27.98
2023-09-06T10:31:52.991Z,27.80
2023-09-06T10:32:52.957Z,27.78
2023-09-06T10:33:52.909Z,27.73
2023-09-06T10:34:52.927Z,27.95
2023-09-06T10:35:52.944Z,27.98
2023-09-06T10:36:52.977Z,28.10
2023-09-06T10:37:52.870Z,27.85
2023-09-06T10:38:52.953Z,27.73
2023-09-06T10:39:52.929Z,27.49
2023-09-06T10:40:52.872Z,27.48
2023-09-06T10:41:52.847Z,27.49
2023-09-06T10:42:52.845Z,27.64
2023-09-06T10:43:52.817Z,27.70
2023-09-06T10:44:53.868Z,27.83
2023-09-06T10:45:52.873Z,27.85
2023-09-06T10:46:52.950Z,27.77
2023-09-06T10:47:52.857Z,27.60
2023-09-06T10:48:52.854Z,27.67
2023-09-06T10:49:52.815Z,27.67
2023-09-06T10:50:52.774Z,27.74
2023-09-06T10:51:52.799Z,27.77
2023-09-06T10:52:52.782Z,27.83
2023-09-06T10:53:52.782Z,27.82
2023-09-06T10:54:52.769Z,27.74
2023-09-06T10:55:52.785Z,27.75
2023-09-06T10:56:52.745Z,27.67
2023-09-06T10:57:52.730Z,27.55
2023-09-06T10:58:52.743Z,27.58
2023-09-06T10:59:52.733Z,27.63
2023-09-06T11:00:52.847Z,27.64
2023-09-06T11:01:56.419Z,27.73
2023-09-06T11:02:53.848Z,27.75
2023-09-06T11:03:52.777Z,27.78
2023-09-06T11:04:52.686Z,27.82
2023-09-06T11:05:52.679Z,27.87
2023-09-06T11:06:52.760Z,27.98
2023-09-06T11:07:52.730Z,28.08
2023-09-06T11:08:52.659Z,28.00
2023-09-06T11:09:52.666Z,28.05
2023-09-06T11:10:52.635Z,27.95
2023-09-06T11:11:52.625Z,28.02
2023-09-06T11:12:52.673Z,28.05
2023-09-06T11:13:52.617Z,28.01
2023-09-06T11:14:52.601Z,27.95
2023-09-06T11:15:52.646Z,27.98
2023-09-06T11:16:52.589Z,27.95
2023-09-06T11:17:52.685Z,27.89
2023-09-06T11:18:52.565Z,27.80
2023-09-06T11:19:52.571Z,27.87
2023-09-06T11:20:52.610Z,28.01
2023-09-06T11:21:52.578Z,27.83
2023-09-06T11:22:52.564Z,27.86
2023-09-06T11:23:52.531Z,28.00
2023-09-06T11:24:52.546Z,28.15
2023-09-06T11:25:52.521Z,28.11
2023-09-06T11:26:52.532Z,28.15
2023-09-06T11:27:52.514Z,28.37
2023-09-06T11:28:52.535Z,28.47
2023-09-06T11:29:52.492Z,28.42
2023-09-06T11:30:52.483Z,28.42
2023-09-06T11:31:52.501Z,28.45
2023-09-06T11:32:52.532Z,28.33
2023-09-06T11:33:52.473Z,28.37
2023-09-06T11:34:52.452Z,28.49
2023-09-06T11:35:52.459Z,28.51
2023-09-06T11:36:52.466Z,28.49
2023-09-06T11:37:52.426Z,28.48
2023-09-06T11:38:52.419Z,28.66
2023-09-06T11:39:52.427Z,28.66
2023-09-06T11:40:52.416Z,28.72
2023-09-06T11:41:52.410Z,28.59
2023-09-06T11:43:25.325Z,28.47
2023-09-06T11:43:52.378Z,28.48
2023-09-06T11:44:52.365Z,28.48
2023-09-06T11:45:52.416Z,28.47
2023-09-06T11:46:52.433Z,28.45
2023-09-06T11:47:52.389Z,28.57
2023-09-06T11:48:52.461Z,28.63
2023-09-06T11:49:52.377Z,28.69
2023-09-06T11:50:52.353Z,28.63
2023-09-06T11:51:52.311Z,28.60
2023-09-06T11:52:58.528Z,28.63
2023-09-06T11:53:54.297Z,28.62
2023-09-06T11:54:52.314Z,28.64
2023-09-06T11:55:52.310Z,28.63
2023-09-06T11:56:52.411Z,28.57
2023-09-06T11:57:52.284Z,28.60
2023-09-06T11:58:52.244Z,28.67
2023-09-06T11:59:52.267Z,28.76
2023-09-06T12:00:52.697Z,28.79
2023-09-06T12:01:52.308Z,28.66
2023-09-06T12:02:52.287Z,28.82
2023-09-06T12:03:52.341Z,28.79
2023-09-06T12:04:52.225Z,28.78
2023-09-06T12:05:52.263Z,28.79
2023-09-06T12:06:52.302Z,28.76
2023-09-06T12:07:52.182Z,28.78
2023-09-06T12:08:52.225Z,28.86
2023-09-06T12:09:52.191Z,28.91
2023-09-06T12:10:52.157Z,28.84
2023-09-06T12:11:52.180Z,28.75
2023-09-06T12:12:52.143Z,28.81
2023-09-06T12:13:52.168Z,28.76
2023-09-06T12:14:52.183Z,28.85
2023-09-06T12:15:52.137Z,28.75
2023-09-06T12:16:52.224Z,28.85
2023-09-06T12:17:52.171Z,28.84
2023-09-06T12:18:52.189Z,28.79
2023-09-06T12:19:52.088Z,28.81
2023-09-06T12:20:52.115Z,28.86
2023-09-06T12:21:52.086Z,28.94
2023-09-06T12:22:52.070Z,28.89
2023-09-06T12:23:52.107Z,28.93
2023-09-06T12:24:52.056Z,29.01
2023-09-06T12:25:52.043Z,28.94
2023-09-06T12:26:52.070Z,28.86
2023-09-06T12:27:52.058Z,29.05
2023-09-06T12:28:52.044Z,28.94
2023-09-06T12:29:52.064Z,28.91
2023-09-06T12:30:52.121Z,28.86
2023-09-06T12:31:52.000Z,28.74
2023-09-06T12:32:52.048Z,28.85
2023-09-06T12:33:52.024Z,28.85
2023-09-06T12:34:51.977Z,28.79
2023-09-06T12:35:51.982Z,28.84
2023-09-06T12:36:51.965Z,28.76
2023-09-06T12:37:51.979Z,28.76
2023-09-06T12:38:51.953Z,28.81
2023-09-06T12:39:51.937Z,28.81
2023-09-06T12:40:51.934Z,28.75
2023-09-06T12:41:51.972Z,28.81
2023-09-06T12:42:51.953Z,28.76
2023-09-06T12:43:51.914Z,28.94
2023-09-06T12:44:51.977Z,28.98
2023-09-06T12:45:51.892Z,28.93
2023-09-06T12:46:51.946Z,28.97
2023-09-06T12:47:51.989Z,28.86
2023-09-06T12:48:52.965Z,28.91
2023-09-06T12:49:51.868Z,28.93
2023-09-06T12:50:52.412Z,28.93
2023-09-06T12:51:51.860Z,28.93
2023-09-06T12:52:51.864Z,28.94
2023-09-06T12:53:51.873Z,28.93